createdAt,value
2018-07-01T00:02:23.813Z,96592.07
2018-07-01T00:07:19.517Z,96590.62
2018-07-01T00:12:14.839Z,96595.69
2018-07-01T00:17:10.164Z,96602.47
2018-07-01T00:22:05.456Z,96599.32
2018-07-01T00:27:00.846Z,96607.56
2018-07-01T00:31:56.113Z,96610.39
2018-07-01T00:36:51.963Z,96623.09
2018-07-01T00:41:50.149Z,96622.89
2018-07-01T00:46:45.841Z,96627.36
2018-07-01T00:51:41.409Z,96626.73
2018-07-01T00:56:36.723Z,96628.74
2018-07-01T01:01:32.091Z,96633.71
2018-07-01T01:06:27.350Z,96627.06
2018-07-01T01:11:22.854Z,96640.16
2018-07-01T01:16:18.086Z,96636.84
2018-07-01T01:21:13.348Z,96630.80
2018-07-01T01:26:08.823Z,96626.66
2018-07-01T01:31:03.801Z,96627.84
2018-07-01T01:35:59.220Z,96624.04
2018-07-01T01:41:01.070Z,96621.75
2018-07-01T01:46:02.542Z,96619.16
2018-07-01T01:52:03.567Z,96609.70
2018-07-01T01:57:03.814Z,96612.34
2018-07-01T02:02:05.971Z,96613.55
2018-07-01T02:07:05.149Z,96607.19
2018-07-01T02:12:01.776Z,96617.86
2018-07-01T02:16:59.812Z,96625.86
2018-07-01T02:21:55.947Z,96636.78
2018-07-01T02:26:51.144Z,96644.00
2018-07-01T02:31:47.547Z,96645.05
2018-07-01T02:36:42.800Z,96638.19
2018-07-01T02:41:38.223Z,96645.94
2018-07-01T02:46:33.655Z,96644.09
2018-07-01T02:51:30.050Z,96647.11
2018-07-01T02:56:24.938Z,96650.15
2018-07-01T03:01:19.742Z,96646.17
2018-07-01T03:06:16.076Z,96653.13
2018-07-01T03:11:11.349Z,96652.67
2018-07-01T03:16:06.615Z,96667.33
2018-07-01T03:21:01.883Z,96665.48
2018-07-01T03:25:57.233Z,96675.30
2018-07-01T03:30:52.451Z,96670.55
2018-07-01T03:35:47.780Z,96674.61
2018-07-01T03:40:43.123Z,96688.94
2018-07-01T03:45:39.353Z,96689.98
2018-07-01T03:50:34.566Z,96688.89
2018-07-01T03:55:29.855Z,96695.44
2018-07-01T04:00:26.014Z,96697.59
2018-07-01T04:05:21.693Z,96694.42
2018-07-01T04:10:17.318Z,96691.45
2018-07-01T04:15:12.952Z,96684.31
2018-07-01T04:20:08.560Z,96693.59
2018-07-01T04:25:04.151Z,96698.30
2018-07-01T04:29:59.642Z,96704.80
2018-07-01T04:34:55.246Z,96713.34
2018-07-01T04:39:51.746Z,96717.80
2018-07-01T04:44:48.353Z,96710.11
2018-07-01T04:49:43.501Z,96714.59
2018-07-01T04:54:38.809Z,96709.16
2018-07-01T04:59:33.949Z,96694.19
2018-07-01T05:04:29.020Z,96698.86
2018-07-01T05:09:24.090Z,96703.48
2018-07-01T05:14:19.234Z,96714.41
2018-07-01T05:19:14.168Z,96707.78
2018-07-01T05:24:09.085Z,96716.17
2018-07-01T05:29:04.135Z,96718.39
2018-07-01T05:33:59.059Z,96722.19
2018-07-01T05:38:53.899Z,96731.94
2018-07-01T05:43:48.715Z,96737.31
2018-07-01T05:48:43.625Z,96732.14
2018-07-01T05:53:38.436Z,96725.94
2018-07-01T05:58:33.325Z,96738.03
2018-07-01T06:03:28.213Z,96733.38
2018-07-01T06:08:22.920Z,96736.32
2018-07-01T06:13:17.894Z,96733.47
2018-07-01T06:18:12.785Z,96738.53
2018-07-01T06:23:07.792Z,96737.72
2018-07-01T06:28:02.821Z,96746.73
2018-07-01T06:32:57.489Z,96743.88
2018-07-01T06:37:52.000Z,96745.64
2018-07-01T06:42:46.857Z,96743.03
2018-07-01T06:47:41.632Z,96755.06
2018-07-01T06:52:36.616Z,96750.85
2018-07-01T06:57:31.599Z,96763.11
2018-07-01T07:02:26.512Z,96749.95
2018-07-01T07:07:21.357Z,96748.86
2018-07-01T07:12:16.283Z,96748.48
2018-07-01T07:17:11.304Z,96735.50
2018-07-01T07:22:06.533Z,96737.91
2018-07-01T07:27:01.333Z,96730.69
2018-07-01T07:31:56.389Z,96729.68
2018-07-01T07:36:51.481Z,96734.47
2018-07-01T07:41:46.440Z,96733.86
2018-07-01T07:46:41.397Z,96729.67
2018-07-01T07:51:36.435Z,96732.90
2018-07-01T07:56:31.413Z,96729.26
2018-07-01T08:01:26.564Z,96714.51
2018-07-01T08:06:21.999Z,96710.49
2018-07-01T08:11:17.186Z,96716.37
2018-07-01T08:16:12.484Z,96714.84
2018-07-01T08:21:07.774Z,96718.47
2018-07-01T08:26:03.044Z,96713.06
2018-07-01T08:30:58.590Z,96716.96
2018-07-01T08:35:54.229Z,96713.44
2018-07-01T08:40:49.633Z,96703.23
2018-07-01T08:45:44.881Z,96709.02
2018-07-01T08:50:40.127Z,96714.29
2018-07-01T08:55:35.283Z,96715.02
2018-07-01T09:00:30.515Z,96718.11
2018-07-01T09:05:25.817Z,96723.43
2018-07-01T09:10:21.386Z,96712.61
2018-07-01T09:15:16.678Z,96711.33
2018-07-01T09:20:12.495Z,96707.50
2018-07-01T09:25:07.956Z,96710.16
2018-07-01T09:30:03.910Z,96701.08
2018-07-01T09:35:06.315Z,96693.91
2018-07-01T09:40:02.691Z,96708.27
2018-07-01T09:44:57.974Z,96706.61
2018-07-01T09:49:53.453Z,96688.12
2018-07-01T09:54:49.483Z,96692.17
2018-07-01T10:00:47.543Z,96684.98
2018-07-01T10:05:42.929Z,96695.85
2018-07-01T10:10:38.275Z,96690.54
2018-07-01T10:15:33.734Z,96690.22
2018-07-01T10:20:29.167Z,96689.62
2018-07-01T10:36:45.617Z,96688.20
2018-07-01T10:41:42.082Z,96689.71
2018-07-01T10:46:37.476Z,96678.61
2018-07-01T10:51:34.165Z,96673.41
2018-07-01T10:56:29.581Z,96672.78
2018-07-01T11:01:26.313Z,96667.47
2018-07-01T11:06:23.436Z,96674.00
2018-07-01T11:11:19.920Z,96659.91
2018-07-01T11:16:15.432Z,96665.37
2018-07-01T11:21:10.595Z,96662.84
2018-07-01T11:26:05.527Z,96658.38
2018-07-01T11:31:01.475Z,96653.95
2018-07-01T11:35:56.685Z,96647.80
2018-07-01T11:40:52.748Z,96651.84
2018-07-01T11:45:51.123Z,96646.39
2018-07-01T11:50:46.541Z,96645.91
2018-07-01T11:55:42.275Z,96639.56
2018-07-01T12:00:37.589Z,96644.30
2018-07-01T12:05:33.385Z,96634.86
2018-07-01T12:10:28.637Z,96634.53
2018-07-01T12:15:23.981Z,96630.83
2018-07-01T12:20:19.486Z,96629.71
2018-07-01T12:25:15.199Z,96618.45
2018-07-01T12:30:12.099Z,96616.80
2018-07-01T12:35:07.651Z,96616.22
2018-07-01T12:40:02.784Z,96605.20
2018-07-01T12:44:58.151Z,96615.92
2018-07-01T12:49:53.366Z,96609.25
2018-07-01T12:54:48.608Z,96607.66
2018-07-01T12:59:44.519Z,96603.03
2018-07-01T13:04:39.950Z,96589.91
2018-07-01T13:09:35.762Z,96602.97
2018-07-01T13:14:31.019Z,96600.14
2018-07-01T13:19:26.528Z,96590.48
2018-07-01T13:24:21.733Z,96583.73
2018-07-01T13:29:17.324Z,96567.21
2018-07-01T13:34:12.447Z,96562.73
2018-07-01T13:39:11.709Z,96566.67
2018-07-01T13:44:08.321Z,96556.20
2018-07-01T13:49:03.946Z,96554.19
2018-07-01T13:53:59.772Z,96559.35
2018-07-01T13:58:55.159Z,96555.64
2018-07-01T14:03:50.530Z,96557.55
2018-07-01T14:08:46.535Z,96560.80
2018-07-01T14:13:41.912Z,96568.55
2018-07-01T14:18:37.223Z,96565.31
2018-07-01T14:23:33.640Z,96566.09
2018-07-01T14:28:29.768Z,96562.73
2018-07-01T14:33:27.117Z,96557.10
2018-07-01T14:38:23.493Z,96552.70
2018-07-01T14:43:19.662Z,96552.50
2018-07-01T14:48:15.383Z,96553.30
2018-07-01T14:53:10.725Z,96535.16
2018-07-01T14:58:06.111Z,96533.73
2018-07-01T15:03:01.553Z,96533.06
2018-07-01T15:07:57.036Z,96535.09
2018-07-01T15:12:52.830Z,96543.86
2018-07-01T15:17:48.388Z,96540.81
2018-07-01T15:22:43.735Z,96544.06
2018-07-01T15:27:39.203Z,96542.92
2018-07-01T15:32:35.966Z,96535.98
2018-07-01T15:37:34.050Z,96526.55
2018-07-01T15:42:30.312Z,96527.11
2018-07-01T15:47:27.580Z,96526.52
2018-07-01T15:52:23.665Z,96534.52
2018-07-01T15:57:22.302Z,96531.45
2018-07-01T16:02:19.008Z,96529.20
2018-07-01T16:07:15.723Z,96530.02
2018-07-01T16:12:11.523Z,96547.55
2018-07-01T16:17:07.319Z,96530.27
2018-07-01T16:22:02.807Z,96525.13
2018-07-01T16:27:03.945Z,96525.41
2018-07-01T16:32:01.233Z,96531.06
2018-07-01T16:37:04.090Z,96526.79
2018-07-01T16:41:59.422Z,96519.98
2018-07-01T16:46:54.703Z,96532.16
2018-07-01T16:51:50.071Z,96520.79
2018-07-01T16:56:46.541Z,96527.26
2018-07-01T17:01:41.928Z,96536.41
2018-07-01T17:06:37.438Z,96540.75
2018-07-01T17:11:33.996Z,96532.45
2018-07-01T17:16:30.090Z,96539.00
2018-07-01T17:21:25.357Z,96544.28
2018-07-01T17:26:20.418Z,96555.55
2018-07-01T17:33:29.094Z,96546.53
2018-07-01T17:38:24.838Z,96558.20
2018-07-01T17:43:19.967Z,96558.64
2018-07-01T17:48:15.276Z,96564.25
2018-07-01T17:54:19.213Z,96561.82
2018-07-01T17:59:14.993Z,96555.20
2018-07-01T18:04:10.954Z,96568.66
2018-07-01T18:09:08.525Z,96566.36
2018-07-01T18:14:03.856Z,96570.64
2018-07-01T18:18:59.804Z,96574.92
2018-07-01T18:24:27.545Z,96580.05
2018-07-01T18:28:59.161Z,96584.26
2018-07-01T18:33:45.899Z,96588.25
2018-07-01T18:38:41.083Z,96577.53
2018-07-01T18:43:37.938Z,96573.95
2018-07-01T18:48:33.202Z,96571.47
2018-07-01T18:53:28.529Z,96569.27
2018-07-01T18:58:24.928Z,96564.02
2018-07-01T19:03:21.667Z,96564.90
2018-07-01T19:08:18.063Z,96569.48
2018-07-01T19:13:13.513Z,96569.13
2018-07-01T19:18:09.086Z,96576.06
2018-07-01T19:24:33.795Z,96582.63
2018-07-01T19:29:29.110Z,96597.38
2018-07-01T19:34:24.259Z,96595.78
2018-07-01T19:39:20.307Z,96603.81
2018-07-01T19:44:15.665Z,96604.53
2018-07-01T19:49:11.065Z,96613.41
2018-07-01T19:54:06.440Z,96620.46
2018-07-01T19:59:01.750Z,96625.24
2018-07-01T20:03:58.059Z,96634.86
2018-07-01T20:08:53.577Z,96643.86
2018-07-01T20:13:48.708Z,96647.78
2018-07-01T20:18:44.042Z,96650.27
2018-07-01T20:23:39.431Z,96649.26
2018-07-01T20:28:34.669Z,96651.28
2018-07-01T20:33:30.976Z,96649.34
2018-07-01T20:38:32.610Z,96652.02
2018-07-01T20:44:57.935Z,96646.98
2018-07-01T20:49:53.372Z,96646.98
2018-07-01T20:54:48.343Z,96654.76
2018-07-01T20:59:43.638Z,96646.36
2018-07-01T21:04:39.303Z,96655.49
2018-07-01T21:09:40.336Z,96667.44
2018-07-01T21:14:35.591Z,96656.34
2018-07-01T21:19:36.723Z,96658.02
2018-07-01T21:24:32.341Z,96655.75
2018-07-01T21:29:27.700Z,96662.39
2018-07-01T21:35:52.508Z,96662.03
2018-07-01T21:40:49.285Z,96660.93
2018-07-01T21:45:44.934Z,96672.58
2018-07-01T21:50:40.126Z,96669.09
2018-07-01T21:55:35.475Z,96667.16
2018-07-01T22:00:31.541Z,96665.09
2018-07-01T22:05:28.006Z,96666.50
2018-07-01T22:10:39.677Z,96662.95
2018-07-01T22:15:51.238Z,96662.55
2018-07-01T22:20:46.684Z,96661.45
2018-07-01T22:25:41.588Z,96650.61
2018-07-01T22:30:37.035Z,96651.34
2018-07-01T22:35:32.360Z,96652.12
2018-07-01T22:40:27.741Z,96648.90
2018-07-01T22:45:23.065Z,96654.85
2018-07-01T22:50:18.067Z,96650.51
2018-07-01T22:55:13.316Z,96651.64
2018-07-01T23:00:08.841Z,96651.03
2018-07-01T23:05:04.013Z,96649.53
2018-07-01T23:09:59.122Z,96656.16
2018-07-01T23:14:54.051Z,96647.52
2018-07-01T23:19:49.355Z,96652.88
2018-07-01T23:24:44.693Z,96654.76
2018-07-01T23:29:39.904Z,96655.28
2018-07-01T23:34:35.198Z,96654.44
2018-07-01T23:39:30.591Z,96651.03
2018-07-01T23:44:26.001Z,96642.88
2018-07-01T23:49:21.094Z,96636.02
2018-07-01T23:54:16.720Z,96636.14
2018-07-01T23:59:11.992Z,96632.72
